sensor_id;sensor_type;location;lat;lon;timestamp;pressure;altitude;pressure_sealevel;temperature;humidity
56825;BME280;42705;50.326;18.772;2023-04-06T00:02:57;98861.36;;;-0.19;47.10
56825;BME280;42705;50.326;18.772;2023-04-06T00:08:18;98863.99;;;-0.29;47.36
56825;BME280;42705;50.326;18.772;2023-04-06T00:13:43;98865.12;;;-0.40;47.59
56825;BME280;42705;50.326;18.772;2023-04-06T00:19:04;98867.77;;;-0.47;47.56
56825;BME280;42705;50.326;18.772;2023-04-06T00:24:26;98864.55;;;-0.48;47.93
56825;BME280;42705;50.326;18.772;2023-04-06T00:29:48;98862.83;;;-0.48;48.12
56825;BME280;42705;50.326;18.772;2023-04-06T00:35:10;98860.04;;;-0.47;48.37
56825;BME280;42705;50.326;18.772;2023-04-06T00:40:32;98856.93;;;-0.46;48.72
56825;BME280;42705;50.326;18.772;2023-04-06T00:45:56;98857.69;;;-0.48;48.78
56825;BME280;42705;50.326;18.772;2023-04-06T00:51:18;98854.94;;;-0.47;49.18
56825;BME280;42705;50.326;18.772;2023-04-06T00:56:41;98856.06;;;-0.50;49.21
56825;BME280;42705;50.326;18.772;2023-04-06T01:02:05;98853.51;;;-0.50;49.55
56825;BME280;42705;50.326;18.772;2023-04-06T01:07:31;98852.16;;;-0.51;49.69
56825;BME280;42705;50.326;18.772;2023-04-06T01:13:00;98851.04;;;-0.53;49.98
56825;BME280;42705;50.326;18.772;2023-04-06T01:18:42;98851.55;;;-0.53;50.20
56825;BME280;42705;50.326;18.772;2023-04-06T01:24:10;98849.64;;;-0.52;50.42
56825;BME280;42705;50.326;18.772;2023-04-06T01:29:54;98850.95;;;-0.51;50.38
56825;BME280;42705;50.326;18.772;2023-04-06T01:35:39;98848.91;;;-0.52;50.51
56825;BME280;42705;50.326;18.772;2023-04-06T01:41:08;98849.64;;;-0.53;50.56
56825;BME280;42705;50.326;18.772;2023-04-06T01:46:40;98846.23;;;-0.58;50.69
56825;BME280;42705;50.326;18.772;2023-04-06T01:52:03;98844.53;;;-0.63;50.79
56825;BME280;42705;50.326;18.772;2023-04-06T01:57:25;98843.80;;;-0.66;51.03
56825;BME280;42705;50.326;18.772;2023-04-06T02:02:54;98842.52;;;-0.68;51.01
56825;BME280;42705;50.326;18.772;2023-04-06T02:08:19;98843.37;;;-0.73;51.06
56825;BME280;42705;50.326;18.772;2023-04-06T02:13:42;98841.89;;;-0.79;51.18
56825;BME280;42705;50.326;18.772;2023-04-06T02:19:04;98839.80;;;-0.87;51.30
56825;BME280;42705;50.326;18.772;2023-04-06T02:24:27;98845.62;;;-0.96;51.48
56825;BME280;42705;50.326;18.772;2023-04-06T02:29:48;98845.99;;;-1.01;51.71
56825;BME280;42705;50.326;18.772;2023-04-06T02:35:13;98844.71;;;-1.04;51.66
56825;BME280;42705;50.326;18.772;2023-04-06T02:40:36;98843.19;;;-1.04;51.87
56825;BME280;42705;50.326;18.772;2023-04-06T02:46:09;98840.39;;;-1.03;52.11
56825;BME280;42705;50.326;18.772;2023-04-06T02:51:34;98840.16;;;-1.06;52.10
56825;BME280;42705;50.326;18.772;2023-04-06T02:57:07;98838.73;;;-1.09;52.44
56825;BME280;42705;50.326;18.772;2023-04-06T03:02:35;98841.80;;;-1.13;52.41
56825;BME280;42705;50.326;18.772;2023-04-06T03:08:03;98845.09;;;-1.19;52.35
56825;BME280;42705;50.326;18.772;2023-04-06T03:13:33;98846.58;;;-1.22;52.73
56825;BME280;42705;50.326;18.772;2023-04-06T03:18:55;98850.64;;;-1.25;52.77
56825;BME280;42705;50.326;18.772;2023-04-06T03:24:17;98852.66;;;-1.29;52.95
56825;BME280;42705;50.326;18.772;2023-04-06T03:29:39;98852.39;;;-1.31;53.07
56825;BME280;42705;50.326;18.772;2023-04-06T03:35:02;98854.23;;;-1.35;53.13
56825;BME280;42705;50.326;18.772;2023-04-06T03:40:24;98855.69;;;-1.37;53.21
56825;BME280;42705;50.326;18.772;2023-04-06T03:45:46;98854.52;;;-1.43;53.24
56825;BME280;42705;50.326;18.772;2023-04-06T03:51:09;98856.01;;;-1.51;53.47
56825;BME280;42705;50.326;18.772;2023-04-06T03:56:31;98859.93;;;-1.61;53.46
56825;BME280;42705;50.326;18.772;2023-04-06T04:01:53;98861.96;;;-1.65;53.62
56825;BME280;42705;50.326;18.772;2023-04-06T04:07:15;98862.40;;;-1.67;53.88
56825;BME280;42705;50.326;18.772;2023-04-06T04:12:37;98864.17;;;-1.70;53.97
56825;BME280;42705;50.326;18.772;2023-04-06T04:17:59;98864.51;;;-1.69;54.02
56825;BME280;42705;50.326;18.772;2023-04-06T04:23:21;98868.17;;;-1.71;53.91
56825;BME280;42705;50.326;18.772;2023-04-06T04:28:44;98868.08;;;-1.73;53.97
56825;BME280;42705;50.326;18.772;2023-04-06T04:34:07;98865.85;;;-1.74;54.10
56825;BME280;42705;50.326;18.772;2023-04-06T04:39:29;98867.17;;;-1.72;54.13
56825;BME280;42705;50.326;18.772;2023-04-06T04:44:57;98868.33;;;-1.71;54.21
56825;BME280;42705;50.326;18.772;2023-04-06T04:50:37;98866.55;;;-1.69;54.35
56825;BME280;42705;50.326;18.772;2023-04-06T04:55:59;98864.63;;;-1.68;54.42
56825;BME280;42705;50.326;18.772;2023-04-06T05:01:22;98866.95;;;-1.65;54.49
56825;BME280;42705;50.326;18.772;2023-04-06T05:06:45;98866.66;;;-1.62;54.55
56825;BME280;42705;50.326;18.772;2023-04-06T05:12:08;98867.41;;;-1.59;54.55
56825;BME280;42705;50.326;18.772;2023-04-06T05:17:35;98868.77;;;-1.54;54.53
56825;BME280;42705;50.326;18.772;2023-04-06T05:22:57;98864.88;;;-1.45;54.67
56825;BME280;42705;50.326;18.772;2023-04-06T05:28:20;98867.77;;;-1.40;54.56
56825;BME280;42705;50.326;18.772;2023-04-06T05:33:43;98871.91;;;-1.31;54.70
56825;BME280;42705;50.326;18.772;2023-04-06T05:39:07;98863.02;;;-1.22;54.75
56825;BME280;42705;50.326;18.772;2023-04-06T05:44:33;98862.11;;;-1.11;55.09
56825;BME280;42705;50.326;18.772;2023-04-06T05:50:06;98861.31;;;-0.99;55.28
56825;BME280;42705;50.326;18.772;2023-04-06T05:55:31;98858.39;;;-0.85;55.44
56825;BME280;42705;50.326;18.772;2023-04-06T06:01:03;98860.98;;;-0.75;55.17
56825;BME280;42705;50.326;18.772;2023-04-06T06:06:33;98857.13;;;-0.60;55.17
56825;BME280;42705;50.326;18.772;2023-04-06T06:12:17;98849.76;;;-0.42;55.22
56825;BME280;42705;50.326;18.772;2023-04-06T06:17:39;98849.48;;;-0.27;55.00
56825;BME280;42705;50.326;18.772;2023-04-06T06:23:02;98849.17;;;-0.10;54.56
56825;BME280;42705;50.326;18.772;2023-04-06T06:28:25;98848.84;;;0.10;53.83
56825;BME280;42705;50.326;18.772;2023-04-06T06:33:50;98845.28;;;0.30;53.42
56825;BME280;42705;50.326;18.772;2023-04-06T06:39:14;98843.66;;;0.48;53.00
56825;BME280;42705;50.326;18.772;2023-04-06T06:44:36;98843.75;;;0.65;52.76
56825;BME280;42705;50.326;18.772;2023-04-06T06:49:58;98844.81;;;0.80;52.51
56825;BME280;42705;50.326;18.772;2023-04-06T06:55:20;98846.86;;;0.96;52.08
56825;BME280;42705;50.326;18.772;2023-04-06T07:00:42;98848.95;;;1.11;51.77
56825;BME280;42705;50.326;18.772;2023-04-06T07:06:04;98846.80;;;1.24;51.24
56825;BME280;42705;50.326;18.772;2023-04-06T07:11:26;98844.58;;;1.35;51.20
56825;BME280;42705;50.326;18.772;2023-04-06T07:16:50;98842.89;;;1.49;50.63
56825;BME280;42705;50.326;18.772;2023-04-06T07:22:13;98846.77;;;1.51;49.83
56825;BME280;42705;50.326;18.772;2023-04-06T07:27:34;98851.11;;;1.46;49.49
56825;BME280;42705;50.326;18.772;2023-04-06T07:32:57;98852.02;;;1.41;49.16
56825;BME280;42705;50.326;18.772;2023-04-06T07:38:21;98862.28;;;1.39;49.21
56825;BME280;42705;50.326;18.772;2023-04-06T07:43:45;98857.45;;;1.43;48.85
56825;BME280;42705;50.326;18.772;2023-04-06T07:49:08;98858.90;;;1.45;48.65
56825;BME280;42705;50.326;18.772;2023-04-06T07:54:30;98858.27;;;1.48;48.70
56825;BME280;42705;50.326;18.772;2023-04-06T07:59:52;98853.77;;;1.63;48.89
56825;BME280;42705;50.326;18.772;2023-04-06T08:05:14;98851.12;;;1.86;48.72
56825;BME280;42705;50.326;18.772;2023-04-06T08:10:36;98852.31;;;2.14;48.48
56825;BME280;42705;50.326;18.772;2023-04-06T08:15:58;98850.02;;;2.43;48.33
56825;BME280;42705;50.326;18.772;2023-04-06T08:21:22;98845.04;;;2.53;47.54
56825;BME280;42705;50.326;18.772;2023-04-06T08:26:43;98845.72;;;2.53;47.13
56825;BME280;42705;50.326;18.772;2023-04-06T08:32:05;98839.61;;;2.51;46.97
56825;BME280;42705;50.326;18.772;2023-04-06T08:37:28;98837.05;;;2.54;47.18
56825;BME280;42705;50.326;18.772;2023-04-06T08:42:52;98836.05;;;2.56;46.97
56825;BME280;42705;50.326;18.772;2023-04-06T08:48:16;98827.86;;;2.65;47.23
56825;BME280;42705;50.326;18.772;2023-04-06T08:53:39;98827.73;;;2.74;47.02
56825;BME280;42705;50.326;18.772;2023-04-06T08:59:02;98824.05;;;2.92;46.82
56825;BME280;42705;50.326;18.772;2023-04-06T09:04:26;98820.66;;;3.06;46.64
56825;BME280;42705;50.326;18.772;2023-04-06T09:09:48;98821.14;;;3.11;46.13
56825;BME280;42705;50.326;18.772;2023-04-06T09:15:20;98817.39;;;3.19;45.83
56825;BME280;42705;50.326;18.772;2023-04-06T09:20:42;98817.23;;;3.32;46.09
56825;BME280;42705;50.326;18.772;2023-04-06T09:26:15;98818.89;;;3.58;46.04
56825;BME280;42705;50.326;18.772;2023-04-06T09:31:37;98815.80;;;3.82;45.72
56825;BME280;42705;50.326;18.772;2023-04-06T09:36:59;98805.46;;;4.11;45.51
56825;BME280;42705;50.326;18.772;2023-04-06T09:42:25;98799.53;;;4.45;45.23
56825;BME280;42705;50.326;18.772;2023-04-06T09:47:47;98789.83;;;4.59;44.89
56825;BME280;42705;50.326;18.772;2023-04-06T09:53:10;98785.55;;;4.65;44.40
56825;BME280;42705;50.326;18.772;2023-04-06T09:58:34;98783.16;;;4.81;44.35
56825;BME280;42705;50.326;18.772;2023-04-06T10:04:21;98783.05;;;5.00;44.11
56825;BME280;42705;50.326;18.772;2023-04-06T10:09:48;98780.29;;;4.97;43.34
56825;BME280;42705;50.326;18.772;2023-04-06T10:15:10;98768.89;;;5.04;43.07
56825;BME280;42705;50.326;18.772;2023-04-06T10:20:43;98765.29;;;4.96;42.90
56825;BME280;42705;50.326;18.772;2023-04-06T10:26:16;98750.90;;;4.99;43.03
56825;BME280;42705;50.326;18.772;2023-04-06T10:31:42;98759.15;;;5.05;43.05
56825;BME280;42705;50.326;18.772;2023-04-06T10:37:13;98755.87;;;5.14;42.89
56825;BME280;42705;50.326;18.772;2023-04-06T10:42:38;98754.79;;;5.20;42.86
56825;BME280;42705;50.326;18.772;2023-04-06T10:48:00;98746.48;;;5.25;42.71
56825;BME280;42705;50.326;18.772;2023-04-06T10:53:26;98747.52;;;5.28;42.44
56825;BME280;42705;50.326;18.772;2023-04-06T10:58:53;98746.46;;;5.33;41.91
56825;BME280;42705;50.326;18.772;2023-04-06T11:04:18;98741.34;;;5.35;42.28
56825;BME280;42705;50.326;18.772;2023-04-06T11:09:40;98738.15;;;5.28;42.20
56825;BME280;42705;50.326;18.772;2023-04-06T11:15:03;98733.30;;;5.20;41.94
56825;BME280;42705;50.326;18.772;2023-04-06T11:20:28;98734.08;;;5.11;41.84
56825;BME280;42705;50.326;18.772;2023-04-06T11:25:51;98726.80;;;4.99;41.68
56825;BME280;42705;50.326;18.772;2023-04-06T11:31:13;98726.39;;;5.08;42.07
56825;BME280;42705;50.326;18.772;2023-04-06T11:36:35;98725.24;;;5.13;41.82
56825;BME280;42705;50.326;18.772;2023-04-06T11:41:59;98717.58;;;5.14;41.48
56825;BME280;42705;50.326;18.772;2023-04-06T11:47:36;98720.05;;;5.13;41.33
56825;BME280;42705;50.326;18.772;2023-04-06T11:53:02;98716.45;;;5.31;41.49
56825;BME280;42705;50.326;18.772;2023-04-06T11:58:26;98713.02;;;5.36;41.19
56825;BME280;42705;50.326;18.772;2023-04-06T12:03:49;98703.91;;;5.35;40.99
56825;BME280;42705;50.326;18.772;2023-04-06T12:09:11;98699.92;;;5.43;41.54
56825;BME280;42705;50.326;18.772;2023-04-06T12:14:33;98702.85;;;5.52;41.15
56825;BME280;42705;50.326;18.772;2023-04-06T12:19:56;98698.90;;;5.48;40.99
56825;BME280;42705;50.326;18.772;2023-04-06T12:25:18;98696.73;;;5.42;40.93
56825;BME280;42705;50.326;18.772;2023-04-06T12:30:40;98693.38;;;5.40;41.06
56825;BME280;42705;50.326;18.772;2023-04-06T12:36:04;98687.23;;;5.39;41.15
56825;BME280;42705;50.326;18.772;2023-04-06T12:41:32;98691.84;;;5.21;40.95
56825;BME280;42705;50.326;18.772;2023-04-06T12:46:54;98683.17;;;5.08;41.13
56825;BME280;42705;50.326;18.772;2023-04-06T12:52:18;98679.31;;;4.98;41.62
56825;BME280;42705;50.326;18.772;2023-04-06T12:57:40;98674.45;;;4.90;41.56
56825;BME280;42705;50.326;18.772;2023-04-06T13:03:03;98672.90;;;4.87;41.75
56825;BME280;42705;50.326;18.772;2023-04-06T13:08:25;98671.28;;;4.80;41.71
56825;BME280;42705;50.326;18.772;2023-04-06T13:13:47;98665.20;;;4.72;41.68
56825;BME280;42705;50.326;18.772;2023-04-06T13:19:09;98658.86;;;4.65;41.97
56825;BME280;42705;50.326;18.772;2023-04-06T13:24:32;98661.17;;;4.53;42.38
56825;BME280;42705;50.326;18.772;2023-04-06T13:29:55;98654.23;;;4.39;42.50
56825;BME280;42705;50.326;18.772;2023-04-06T13:35:18;98662.75;;;4.30;42.85
56825;BME280;42705;50.326;18.772;2023-04-06T13:40:40;98666.94;;;4.15;43.54
56825;BME280;42705;50.326;18.772;2023-04-06T13:46:02;98662.83;;;3.92;44.04
56825;BME280;42705;50.326;18.772;2023-04-06T13:51:24;98662.05;;;3.76;44.52
56825;BME280;42705;50.326;18.772;2023-04-06T13:56:48;98657.64;;;3.69;45.27
56825;BME280;42705;50.326;18.772;2023-04-06T14:02:10;98658.41;;;3.64;45.56
56825;BME280;42705;50.326;18.772;2023-04-06T14:07:32;98641.78;;;3.65;46.06
56825;BME280;42705;50.326;18.772;2023-04-06T14:12:55;98641.02;;;3.60;46.54
56825;BME280;42705;50.326;18.772;2023-04-06T14:18:17;98641.96;;;3.50;46.93
56825;BME280;42705;50.326;18.772;2023-04-06T14:23:38;98644.54;;;3.38;47.51
56825;BME280;42705;50.326;18.772;2023-04-06T14:29:01;98642.77;;;3.27;47.89
56825;BME280;42705;50.326;18.772;2023-04-06T14:34:23;98638.73;;;3.16;48.20
56825;BME280;42705;50.326;18.772;2023-04-06T14:39:45;98642.28;;;3.11;48.53
56825;BME280;42705;50.326;18.772;2023-04-06T14:45:07;98635.25;;;3.01;48.98
56825;BME280;42705;50.326;18.772;2023-04-06T14:50:30;98637.80;;;2.93;49.40
56825;BME280;42705;50.326;18.772;2023-04-06T14:55:52;98637.25;;;2.94;49.85
56825;BME280;42705;50.326;18.772;2023-04-06T15:01:14;98634.70;;;2.99;49.96
56825;BME280;42705;50.326;18.772;2023-04-06T15:06:37;98629.29;;;3.03;50.14
56825;BME280;42705;50.326;18.772;2023-04-06T15:11:59;98631.84;;;3.04;50.35
56825;BME280;42705;50.326;18.772;2023-04-06T15:17:23;98635.29;;;3.07;50.79
56825;BME280;42705;50.326;18.772;2023-04-06T15:22:48;98634.63;;;3.07;50.64
56825;BME280;42705;50.326;18.772;2023-04-06T15:28:12;98628.81;;;3.02;50.88
56825;BME280;42705;50.326;18.772;2023-04-06T15:33:36;98630.42;;;2.96;51.01
56825;BME280;42705;50.326;18.772;2023-04-06T15:39:02;98630.30;;;2.88;51.54
56825;BME280;42705;50.326;18.772;2023-04-06T15:44:26;98625.57;;;2.83;52.09
56825;BME280;42705;50.326;18.772;2023-04-06T15:49:49;98626.89;;;2.81;52.62
56825;BME280;42705;50.326;18.772;2023-04-06T15:55:11;98628.94;;;2.75;52.69
56825;BME280;42705;50.326;18.772;2023-04-06T16:00:33;98627.86;;;2.79;53.01
56825;BME280;42705;50.326;18.772;2023-04-06T16:05:56;98626.89;;;2.87;52.92
56825;BME280;42705;50.326;18.772;2023-04-06T16:11:18;98625.77;;;2.93;52.60
56825;BME280;42705;50.326;18.772;2023-04-06T16:16:40;98629.86;;;2.90;52.58
56825;BME280;42705;50.326;18.772;2023-04-06T16:22:05;98632.89;;;2.85;52.83
56825;BME280;42705;50.326;18.772;2023-04-06T16:27:27;98636.84;;;2.82;53.01
56825;BME280;42705;50.326;18.772;2023-04-06T16:32:49;98640.00;;;2.69;53.38
56825;BME280;42705;50.326;18.772;2023-04-06T16:38:13;98640.52;;;2.56;54.35
56825;BME280;42705;50.326;18.772;2023-04-06T16:43:35;98643.35;;;2.48;54.78
56825;BME280;42705;50.326;18.772;2023-04-06T16:49:02;98647.46;;;2.30;55.25
56825;BME280;42705;50.326;18.772;2023-04-06T16:54:24;98655.19;;;2.11;56.75
56825;BME280;42705;50.326;18.772;2023-04-06T16:59:46;98658.22;;;2.05;57.35
56825;BME280;42705;50.326;18.772;2023-04-06T17:05:08;98660.97;;;1.99;58.04
56825;BME280;42705;50.326;18.772;2023-04-06T17:10:30;98665.64;;;1.96;58.80
56825;BME280;42705;50.326;18.772;2023-04-06T17:15:52;98668.45;;;1.94;58.88
56825;BME280;42705;50.326;18.772;2023-04-06T17:21:14;98668.89;;;1.86;58.96
56825;BME280;42705;50.326;18.772;2023-04-06T17:26:37;98670.09;;;1.76;59.33
56825;BME280;42705;50.326;18.772;2023-04-06T17:31:59;98676.10;;;1.69;59.95
56825;BME280;42705;50.326;18.772;2023-04-06T17:37:21;98679.43;;;1.68;60.49
56825;BME280;42705;50.326;18.772;2023-04-06T17:42:43;98681.02;;;1.60;60.84
56825;BME280;42705;50.326;18.772;2023-04-06T17:48:06;98684.66;;;1.56;61.29
56825;BME280;42705;50.326;18.772;2023-04-06T17:53:32;98691.89;;;1.60;61.62
56825;BME280;42705;50.326;18.772;2023-04-06T17:59:20;98694.55;;;1.62;61.91
56825;BME280;42705;50.326;18.772;2023-04-06T18:04:42;98692.24;;;1.60;62.13
56825;BME280;42705;50.326;18.772;2023-04-06T18:10:05;98689.52;;;1.63;62.52
56825;BME280;42705;50.326;18.772;2023-04-06T18:15:28;98691.14;;;1.75;63.02
56825;BME280;42705;50.326;18.772;2023-04-06T18:20:52;98687.36;;;1.85;63.12
56825;BME280;42705;50.326;18.772;2023-04-06T18:26:16;98685.03;;;1.93;62.98
56825;BME280;42705;50.326;18.772;2023-04-06T18:31:39;98684.64;;;1.95;63.11
56825;BME280;42705;50.326;18.772;2023-04-06T18:37:01;98682.06;;;1.97;63.46
56825;BME280;42705;50.326;18.772;2023-04-06T18:42:24;98682.27;;;2.03;63.54
56825;BME280;42705;50.326;18.772;2023-04-06T18:47:47;98676.09;;;2.06;63.58
56825;BME280;42705;50.326;18.772;2023-04-06T18:53:09;98679.70;;;2.03;63.50
56825;BME280;42705;50.326;18.772;2023-04-06T18:58:32;98679.36;;;1.93;63.22
56825;BME280;42705;50.326;18.772;2023-04-06T19:03:56;98674.14;;;1.87;63.72
56825;BME280;42705;50.326;18.772;2023-04-06T19:09:19;98674.38;;;1.83;63.96
56825;BME280;42705;50.326;18.772;2023-04-06T19:14:42;98680.16;;;1.81;64.26
56825;BME280;42705;50.326;18.772;2023-04-06T19:20:12;98677.25;;;1.67;64.24
56825;BME280;42705;50.326;18.772;2023-04-06T19:25:35;98674.06;;;1.65;64.34
56825;BME280;42705;50.326;18.772;2023-04-06T19:30:59;98668.85;;;1.63;64.40
56825;BME280;42705;50.326;18.772;2023-04-06T19:36:22;98666.73;;;1.60;64.80
56825;BME280;42705;50.326;18.772;2023-04-06T19:41:44;98659.27;;;1.58;65.01
56825;BME280;42705;50.326;18.772;2023-04-06T19:47:07;98648.11;;;1.61;65.31
56825;BME280;42705;50.326;18.772;2023-04-06T19:52:29;98641.83;;;1.59;65.44
56825;BME280;42705;50.326;18.772;2023-04-06T19:57:51;98637.00;;;1.59;65.58
56825;BME280;42705;50.326;18.772;2023-04-06T20:03:13;98634.11;;;1.55;65.58
56825;BME280;42705;50.326;18.772;2023-04-06T20:08:36;98631.17;;;1.55;65.89
56825;BME280;42705;50.326;18.772;2023-04-06T20:13:59;98632.02;;;1.53;66.05
56825;BME280;42705;50.326;18.772;2023-04-06T20:19:22;98640.10;;;1.49;66.49
56825;BME280;42705;50.326;18.772;2023-04-06T20:24:44;98640.97;;;1.59;66.56
56825;BME280;42705;50.326;18.772;2023-04-06T20:30:07;98637.34;;;1.66;66.54
56825;BME280;42705;50.326;18.772;2023-04-06T20:35:29;98632.80;;;1.60;66.60
56825;BME280;42705;50.326;18.772;2023-04-06T20:40:55;98629.41;;;1.53;66.67
56825;BME280;42705;50.326;18.772;2023-04-06T20:46:20;98628.95;;;1.51;66.90
56825;BME280;42705;50.326;18.772;2023-04-06T20:51:42;98623.05;;;1.56;67.29
56825;BME280;42705;50.326;18.772;2023-04-06T20:57:04;98621.87;;;1.52;67.29
56825;BME280;42705;50.326;18.772;2023-04-06T21:02:26;98617.22;;;1.45;67.02
56825;BME280;42705;50.326;18.772;2023-04-06T21:07:48;98610.36;;;1.48;67.44
56825;BME280;42705;50.326;18.772;2023-04-06T21:13:10;98604.70;;;1.44;67.71
56825;BME280;42705;50.326;18.772;2023-04-06T21:18:32;98602.23;;;1.45;67.91
56825;BME280;42705;50.326;18.772;2023-04-06T21:23:54;98598.08;;;1.46;67.76
56825;BME280;42705;50.326;18.772;2023-04-06T21:29:17;98596.25;;;1.38;67.86
56825;BME280;42705;50.326;18.772;2023-04-06T21:34:41;98590.70;;;1.36;68.03
56825;BME280;42705;50.326;18.772;2023-04-06T21:40:03;98589.31;;;1.36;68.59
56825;BME280;42705;50.326;18.772;2023-04-06T21:45:26;98586.14;;;1.34;68.53
56825;BME280;42705;50.326;18.772;2023-04-06T21:50:48;98584.17;;;1.32;68.48
56825;BME280;42705;50.326;18.772;2023-04-06T21:56:10;98582.58;;;1.33;68.72
56825;BME280;42705;50.326;18.772;2023-04-06T22:01:31;98576.16;;;1.34;68.66
56825;BME280;42705;50.326;18.772;2023-04-06T22:06:53;98569.91;;;1.28;68.82
56825;BME280;42705;50.326;18.772;2023-04-06T22:12:15;98567.80;;;1.22;68.83
56825;BME280;42705;50.326;18.772;2023-04-06T22:17:37;98557.95;;;1.16;69.17
56825;BME280;42705;50.326;18.772;2023-04-06T22:22:59;98551.20;;;1.17;69.19
56825;BME280;42705;50.326;18.772;2023-04-06T22:28:21;98548.78;;;1.17;69.45
56825;BME280;42705;50.326;18.772;2023-04-06T22:33:42;98547.50;;;1.08;69.31
56825;BME280;42705;50.326;18.772;2023-04-06T22:39:04;98545.60;;;1.08;69.69
56825;BME280;42705;50.326;18.772;2023-04-06T22:44:26;98540.06;;;1.12;70.03
56825;BME280;42705;50.326;18.772;2023-04-06T22:49:48;98536.70;;;1.14;70.04
56825;BME280;42705;50.326;18.772;2023-04-06T22:55:10;98530.34;;;1.21;69.98
56825;BME280;42705;50.326;18.772;2023-04-06T23:00:32;98532.63;;;1.26;69.89
56825;BME280;42705;50.326;18.772;2023-04-06T23:05:54;98528.33;;;1.30;70.04
56825;BME280;42705;50.326;18.772;2023-04-06T23:11:16;98528.48;;;1.37;69.78
56825;BME280;42705;50.326;18.772;2023-04-06T23:16:38;98512.41;;;1.41;70.27
56825;BME280;42705;50.326;18.772;2023-04-06T23:21:59;98513.38;;;1.43;70.11
56825;BME280;42705;50.326;18.772;2023-04-06T23:27:22;98509.94;;;1.46;70.05
56825;BME280;42705;50.326;18.772;2023-04-06T23:32:44;98507.27;;;1.45;70.11
56825;BME280;42705;50.326;18.772;2023-04-06T23:38:06;98507.36;;;1.36;70.14
56825;BME280;42705;50.326;18.772;2023-04-06T23:43:28;98504.22;;;1.40;70.12
56825;BME280;42705;50.326;18.772;2023-04-06T23:48:49;98496.38;;;1.39;70.25
56825;BME280;42705;50.326;18.772;2023-04-06T23:54:11;98489.54;;;1.35;70.36
56825;BME280;42705;50.326;18.772;2023-04-06T23:59:33;98487.81;;;1.38;70.45
